createdAt,value
2023-02-23T00:00:21.191Z,8.10
2023-02-23T00:01:26.335Z,8.10
2023-02-23T00:02:29.915Z,8.10
2023-02-23T00:03:32.574Z,8.10
2023-02-23T00:04:37.131Z,8.10
2023-02-23T00:05:39.796Z,8.10
2023-02-23T00:06:43.421Z,8.10
2023-02-23T00:07:46.305Z,8.10
2023-02-23T00:08:49.917Z,8.10
2023-02-23T00:09:53.289Z,8.10
2023-02-23T00:10:58.735Z,8.10
2023-02-23T00:12:07.723Z,8.10
2023-02-23T00:13:11.543Z,8.10
2023-02-23T00:14:14.190Z,8.20
2023-02-23T00:15:18.015Z,8.10
2023-02-23T00:16:23.969Z,8.20
2023-02-23T00:17:27.958Z,8.10
2023-02-23T00:18:30.578Z,8.10
2023-02-23T00:19:37.863Z,8.20
2023-02-23T00:20:45.289Z,8.20
2023-02-23T00:21:48.760Z,8.20
2023-02-23T00:22:54.924Z,8.20
2023-02-23T00:24:02.917Z,8.20
2023-02-23T00:25:09.256Z,8.20
2023-02-23T00:26:14.034Z,8.20
2023-02-23T00:27:21.201Z,8.20
2023-02-23T00:28:25.042Z,8.10
2023-02-23T00:29:27.597Z,8.20
2023-02-23T00:30:31.586Z,8.10
2023-02-23T00:31:34.385Z,8.20
2023-02-23T00:32:38.104Z,8.10
2023-02-23T00:33:41.434Z,8.10
2023-02-23T00:34:45.234Z,8.10
2023-02-23T00:35:47.740Z,8.20
2023-02-23T00:36:54.380Z,8.10
2023-02-23T00:37:57.028Z,8.10
2023-02-23T00:39:02.815Z,8.20
2023-02-23T00:40:08.610Z,8.10
2023-02-23T00:41:17.674Z,8.20
2023-02-23T00:42:21.905Z,8.10
2023-02-23T00:43:28.187Z,8.10
2023-02-23T00:44:32.510Z,8.10
2023-02-23T00:45:36.804Z,8.10
2023-02-23T00:46:39.583Z,8.10
2023-02-23T00:47:45.756Z,8.10
2023-02-23T00:48:51.377Z,8.10
2023-02-23T00:49:55.535Z,8.10
2023-02-23T00:51:03.217Z,8.10
2023-02-23T00:52:07.054Z,8.10
2023-02-23T00:53:11.594Z,8.10
2023-02-23T00:54:16.523Z,8.10
2023-02-23T00:55:21.717Z,8.10
2023-02-23T00:56:24.500Z,8.10
2023-02-23T00:57:29.605Z,8.10
2023-02-23T00:58:32.660Z,8.10
2023-02-23T00:59:36.928Z,8.10
2023-02-23T01:00:42.343Z,8.10
2023-02-23T01:01:46.468Z,8.10
2023-02-23T01:02:49.777Z,8.10
2023-02-23T01:03:54.242Z,8.10
2023-02-23T01:04:57.126Z,8.10
2023-02-23T01:06:05.471Z,8.10
2023-02-23T01:07:08.159Z,8.10
2023-02-23T01:08:12.035Z,8.10
2023-02-23T01:09:22.080Z,8.10
2023-02-23T01:10:26.138Z,8.10
2023-02-23T01:11:31.344Z,8.10
2023-02-23T01:12:36.223Z,8.10
2023-02-23T01:13:39.903Z,8.10
2023-02-23T01:14:43.463Z,8.10
2023-02-23T01:15:48.101Z,8.10
2023-02-23T01:16:52.361Z,8.10
2023-02-23T01:17:54.939Z,8.10
2023-02-23T01:19:01.042Z,8.10
2023-02-23T01:20:13.271Z,8.10
2023-02-23T01:21:20.048Z,8.10
2023-02-23T01:22:22.697Z,8.10
2023-02-23T01:23:26.431Z,8.10
2023-02-23T01:24:31.049Z,8.10
2023-02-23T01:25:35.814Z,8.10
2023-02-23T01:26:41.214Z,8.10
2023-02-23T01:27:47.113Z,8.10
2023-02-23T01:28:50.520Z,8.10
2023-02-23T01:29:56.057Z,8.10
2023-02-23T01:30:58.742Z,8.10
2023-02-23T01:32:04.675Z,8.10
2023-02-23T01:33:08.056Z,8.10
2023-02-23T01:34:14.806Z,8.10
2023-02-23T01:35:17.447Z,8.10
2023-02-23T01:36:21.121Z,8.10
2023-02-23T01:37:23.761Z,8.10
2023-02-23T01:38:28.179Z,8.10
2023-02-23T01:39:33.774Z,8.10
2023-02-23T01:40:39.072Z,8.10
2023-02-23T01:41:43.470Z,8.10
2023-02-23T01:42:47.646Z,8.10
2023-02-23T01:43:59.371Z,8.10
2023-02-23T01:45:34.710Z,8.10
2023-02-23T01:46:39.984Z,8.10
2023-02-23T01:47:44.246Z,8.10
2023-02-23T01:48:48.482Z,8.10
2023-02-23T01:49:53.814Z,8.10
2023-02-23T01:51:01.755Z,8.10
2023-02-23T01:52:11.651Z,8.10
2023-02-23T01:53:14.702Z,8.10
2023-02-23T01:54:23.957Z,8.10
2023-02-23T01:55:29.333Z,8.10
2023-02-23T01:56:43.450Z,8.10
2023-02-23T01:57:47.519Z,8.10
2023-02-23T01:58:54.760Z,8.00
2023-02-23T01:59:57.429Z,8.10
2023-02-23T02:01:03.141Z,8.00
2023-02-23T02:02:06.055Z,8.00
2023-02-23T02:03:15.742Z,8.00
2023-02-23T02:04:20.352Z,8.00
2023-02-23T02:05:24.637Z,8.00
2023-02-23T02:06:29.218Z,8.00
2023-02-23T02:07:35.364Z,8.00
2023-02-23T02:08:44.996Z,8.00
2023-02-23T02:10:18.272Z,8.00
2023-02-23T02:11:30.774Z,8.00
2023-02-23T02:12:35.461Z,8.00
2023-02-23T02:13:40.828Z,8.00
2023-02-23T02:14:45.722Z,8.00
2023-02-23T02:16:37.569Z,8.00
2023-02-23T02:17:47.583Z,8.00
2023-02-23T02:19:44.056Z,8.00
2023-02-23T02:21:42.843Z,8.00
2023-02-23T02:23:23.540Z,8.00
2023-02-23T02:25:34.858Z,8.00
2023-02-23T02:26:49.977Z,8.00
2023-02-23T02:28:47.638Z,8.00
2023-02-23T02:30:35.428Z,8.00
2023-02-23T02:32:50.535Z,8.00
2023-02-23T02:34:50.545Z,8.00
2023-02-23T02:36:36.497Z,7.90
2023-02-23T02:37:57.378Z,8.00
2023-02-23T02:39:10.712Z,7.90
2023-02-23T02:40:28.738Z,8.00
2023-02-23T02:41:42.505Z,7.90
2023-02-23T02:43:01.000Z,7.90
2023-02-23T02:44:16.638Z,7.90
2023-02-23T02:45:29.534Z,7.90
2023-02-23T02:46:39.207Z,7.90
2023-02-23T02:47:48.690Z,7.90
2023-02-23T02:49:00.716Z,7.90
2023-02-23T02:50:12.533Z,7.90
2023-02-23T02:51:25.202Z,7.90
2023-02-23T02:52:35.861Z,7.90
2023-02-23T02:53:51.840Z,7.90
2023-02-23T02:55:03.382Z,7.90
2023-02-23T02:56:09.483Z,7.90
2023-02-23T02:57:15.302Z,7.90
2023-02-23T02:58:19.638Z,7.90
2023-02-23T02:59:40.519Z,7.90
2023-02-23T03:01:05.993Z,7.90
2023-02-23T03:02:34.933Z,7.90
2023-02-23T03:04:01.912Z,7.90
2023-02-23T03:05:32.869Z,7.90
2023-02-23T03:07:01.739Z,7.90
2023-02-23T03:08:34.936Z,7.90
2023-02-23T03:10:06.152Z,7.90
2023-02-23T03:11:30.372Z,7.90
2023-02-23T03:13:00.228Z,7.90
2023-02-23T03:14:43.220Z,7.90
2023-02-23T03:16:19.081Z,7.90
2023-02-23T03:17:51.762Z,7.90
2023-02-23T03:19:30.126Z,7.90
2023-02-23T03:21:02.751Z,7.90
2023-02-23T03:22:33.723Z,7.90
2023-02-23T03:24:06.341Z,7.90
2023-02-23T03:25:37.278Z,7.90
2023-02-23T03:27:10.053Z,7.90
2023-02-23T03:28:36.173Z,7.90
2023-02-23T03:30:05.973Z,7.90
2023-02-23T03:31:39.642Z,7.90
2023-02-23T03:33:09.284Z,7.90
2023-02-23T03:34:38.486Z,7.90
2023-02-23T03:36:09.834Z,7.90
2023-02-23T03:37:38.480Z,7.90
2023-02-23T03:39:07.783Z,7.90
2023-02-23T03:40:40.686Z,7.90
2023-02-23T03:42:05.928Z,7.90
2023-02-23T03:43:34.283Z,7.90
2023-02-23T03:45:00.260Z,7.90
2023-02-23T03:46:26.211Z,7.90
2023-02-23T03:47:52.792Z,7.90
2023-02-23T03:49:19.149Z,7.90
2023-02-23T03:50:47.702Z,7.90
2023-02-23T03:52:16.667Z,7.80
2023-02-23T03:53:46.147Z,7.80
2023-02-23T03:55:13.323Z,7.80
2023-02-23T03:56:37.640Z,7.90
2023-02-23T03:58:00.586Z,7.90
2023-02-23T03:59:25.225Z,7.80
2023-02-23T04:00:51.342Z,7.80
2023-02-23T04:02:14.744Z,7.80
2023-02-23T04:03:39.246Z,7.80
2023-02-23T04:05:03.807Z,7.80
2023-02-23T04:06:30.279Z,7.80
2023-02-23T04:07:55.428Z,7.80
2023-02-23T04:09:21.927Z,7.80
2023-02-23T04:10:44.910Z,7.80
2023-02-23T04:12:14.520Z,7.80
2023-02-23T04:13:22.556Z,7.80
2023-02-23T04:14:33.683Z,7.80
2023-02-23T04:15:39.290Z,7.80
2023-02-23T04:16:43.136Z,7.80
2023-02-23T04:17:47.153Z,7.80
2023-02-23T04:18:50.778Z,7.80
2023-02-23T04:19:55.515Z,7.80
2023-02-23T04:21:00.449Z,7.80
2023-02-23T04:22:03.381Z,7.80
2023-02-23T04:23:06.940Z,7.80
2023-02-23T04:24:10.932Z,7.80
2023-02-23T04:25:17.508Z,7.80
2023-02-23T04:26:20.126Z,7.80
2023-02-23T04:27:25.233Z,7.80
2023-02-23T04:28:29.294Z,7.80
2023-02-23T04:29:32.928Z,7.80
2023-02-23T04:30:35.619Z,7.80
2023-02-23T04:31:39.272Z,7.80
2023-02-23T04:32:42.266Z,7.80
2023-02-23T04:33:45.840Z,7.80
2023-02-23T04:34:48.733Z,7.80
2023-02-23T04:35:54.913Z,7.80
2023-02-23T04:36:58.684Z,7.80
2023-02-23T04:38:01.492Z,7.80
2023-02-23T04:39:05.539Z,7.80
2023-02-23T04:40:10.177Z,7.80
2023-02-23T04:41:13.836Z,7.80
2023-02-23T04:42:17.327Z,7.80
2023-02-23T04:43:22.247Z,7.80
2023-02-23T04:44:25.145Z,7.80
2023-02-23T04:45:29.677Z,7.80
2023-02-23T04:46:32.413Z,7.80
2023-02-23T04:47:36.229Z,7.80
2023-02-23T04:48:38.753Z,7.80
2023-02-23T04:49:42.472Z,7.80
2023-02-23T04:50:45.160Z,7.80
2023-02-23T04:51:48.727Z,7.70
2023-02-23T04:52:53.119Z,7.80
2023-02-23T04:53:56.685Z,7.80
2023-02-23T04:54:59.206Z,7.70
2023-02-23T04:56:02.817Z,7.70
2023-02-23T04:57:06.154Z,7.70
2023-02-23T04:58:13.780Z,7.70
2023-02-23T04:59:18.383Z,7.70
2023-02-23T05:00:22.402Z,7.70
2023-02-23T05:01:25.867Z,7.70
2023-02-23T05:02:29.772Z,7.70
2023-02-23T05:03:32.437Z,7.70
2023-02-23T05:04:36.285Z,7.70
2023-02-23T05:05:39.680Z,7.70
2023-02-23T05:06:43.937Z,7.70
2023-02-23T05:07:46.442Z,7.70
2023-02-23T05:08:50.002Z,7.70
2023-02-23T05:09:52.625Z,7.70
2023-02-23T05:10:56.241Z,7.70
2023-02-23T05:11:59.101Z,7.70
2023-02-23T05:13:02.948Z,7.70
2023-02-23T05:14:05.638Z,7.70
2023-02-23T05:15:12.154Z,7.70
2023-02-23T05:16:14.845Z,7.70
2023-02-23T05:17:18.526Z,7.70
2023-02-23T05:18:22.273Z,7.70
2023-02-23T05:19:25.013Z,7.70
2023-02-23T05:20:28.537Z,7.70
2023-02-23T05:21:31.059Z,7.70
2023-02-23T05:22:34.638Z,7.70
2023-02-23T05:23:37.842Z,7.70
2023-02-23T05:24:41.505Z,7.70
2023-02-23T05:25:43.965Z,7.70
2023-02-23T05:26:48.074Z,7.70
2023-02-23T05:27:51.042Z,7.70
2023-02-23T05:28:54.757Z,7.70
2023-02-23T05:29:57.275Z,7.70
2023-02-23T05:31:03.688Z,7.70
2023-02-23T05:32:06.682Z,7.70
2023-02-23T05:33:10.318Z,7.70
2023-02-23T05:34:12.881Z,7.70
2023-02-23T05:35:16.602Z,7.70
2023-02-23T05:36:21.917Z,7.70
2023-02-23T05:37:25.499Z,7.70
2023-02-23T05:38:28.120Z,7.70
2023-02-23T05:39:31.670Z,7.70
2023-02-23T05:40:34.354Z,7.70
2023-02-23T05:41:38.274Z,7.70
2023-02-23T05:42:40.827Z,7.70
2023-02-23T05:43:44.564Z,7.70
2023-02-23T05:44:46.982Z,7.70
2023-02-23T05:45:50.709Z,7.70
2023-02-23T05:46:54.786Z,7.70
2023-02-23T05:47:58.350Z,7.70
2023-02-23T05:49:02.176Z,7.70
2023-02-23T05:50:07.128Z,7.70
2023-02-23T05:51:13.242Z,7.70
2023-02-23T05:52:16.812Z,7.70
2023-02-23T05:53:19.927Z,7.70
2023-02-23T05:54:23.349Z,7.70
2023-02-23T05:55:25.937Z,7.70
2023-02-23T05:56:29.428Z,7.70
2023-02-23T05:57:32.419Z,7.70
2023-02-23T05:58:36.284Z,7.70
2023-02-23T05:59:38.872Z,7.70
2023-02-23T06:00:42.332Z,7.70
2023-02-23T06:01:44.917Z,7.70
2023-02-23T06:02:52.498Z,7.70
2023-02-23T06:03:56.121Z,7.70
2023-02-23T06:04:59.867Z,7.60
2023-02-23T06:06:02.440Z,7.60
2023-02-23T06:07:05.933Z,7.70
2023-02-23T06:08:08.697Z,7.70
2023-02-23T06:09:12.330Z,7.60
2023-02-23T06:10:14.856Z,7.70
2023-02-23T06:11:18.699Z,7.70
2023-02-23T06:12:21.457Z,7.70
2023-02-23T06:13:24.903Z,7.70
2023-02-23T06:14:27.471Z,7.70
2023-02-23T06:15:31.380Z,7.70
2023-02-23T06:16:34.027Z,7.60
2023-02-23T06:17:38.007Z,7.60
2023-02-23T06:18:41.854Z,7.70
2023-02-23T06:19:45.441Z,7.60
2023-02-23T06:20:47.996Z,7.70
2023-02-23T06:21:53.029Z,7.70
2023-02-23T06:22:55.728Z,7.60
2023-02-23T06:24:01.069Z,7.60
2023-02-23T06:25:05.087Z,7.70
2023-02-23T06:26:09.135Z,7.60
2023-02-23T06:27:12.204Z,7.60
2023-02-23T06:28:16.450Z,7.60
2023-02-23T06:29:19.439Z,7.60
2023-02-23T06:30:23.807Z,7.60
2023-02-23T06:31:26.473Z,7.60
2023-02-23T06:32:30.075Z,7.60
2023-02-23T06:33:32.800Z,7.60
2023-02-23T06:34:38.374Z,7.60
2023-02-23T06:35:40.979Z,7.60
2023-02-23T06:36:45.062Z,7.60
2023-02-23T06:37:47.552Z,7.60
2023-02-23T06:38:51.320Z,7.60
2023-02-23T06:39:57.982Z,7.60
2023-02-23T06:41:00.656Z,7.60
2023-02-23T06:42:05.080Z,7.60
2023-02-23T06:43:08.078Z,7.60
2023-02-23T06:44:12.688Z,7.60
2023-02-23T06:45:15.255Z,7.60
2023-02-23T06:46:19.162Z,7.60
2023-02-23T06:47:22.075Z,7.60
2023-02-23T06:48:25.620Z,7.60
2023-02-23T06:49:28.381Z,7.60
2023-02-23T06:50:33.371Z,7.60
2023-02-23T06:51:36.026Z,7.60
2023-02-23T06:52:39.799Z,7.60
2023-02-23T06:53:43.830Z,7.60
2023-02-23T06:54:46.548Z,7.60
2023-02-23T06:55:50.395Z,7.70
2023-02-23T06:56:56.781Z,7.70
2023-02-23T06:58:00.541Z,7.70
2023-02-23T06:59:03.275Z,7.70
2023-02-23T07:00:08.638Z,7.70
2023-02-23T07:01:12.329Z,7.70
2023-02-23T07:02:16.257Z,7.70
2023-02-23T07:03:19.429Z,7.70
2023-02-23T07:04:23.618Z,7.70
2023-02-23T07:05:26.565Z,7.70
2023-02-23T07:06:31.751Z,7.70
2023-02-23T07:07:34.620Z,7.70
2023-02-23T07:08:38.814Z,7.70
2023-02-23T07:09:42.934Z,7.70
2023-02-23T07:10:47.291Z,7.70
2023-02-23T07:11:50.179Z,7.70
2023-02-23T07:12:55.700Z,7.70
2023-02-23T07:13:59.042Z,7.70
2023-02-23T07:15:02.770Z,7.70
2023-02-23T07:16:06.985Z,7.70
2023-02-23T07:17:12.576Z,7.70
2023-02-23T07:18:16.455Z,7.70
2023-02-23T07:19:19.184Z,7.70
2023-02-23T07:20:22.923Z,7.70
2023-02-23T07:21:26.760Z,7.70
2023-02-23T07:22:30.798Z,7.70
2023-02-23T07:23:34.730Z,7.80
2023-02-23T07:24:38.595Z,7.80
2023-02-23T07:25:42.318Z,7.80
2023-02-23T07:26:47.446Z,7.80
2023-02-23T07:27:51.249Z,7.80
2023-02-23T07:28:54.342Z,7.80
2023-02-23T07:29:57.928Z,7.80
2023-02-23T07:31:01.778Z,7.80
2023-02-23T07:32:05.948Z,7.80
2023-02-23T07:33:09.844Z,7.80
2023-02-23T07:34:12.575Z,7.80
2023-02-23T07:35:16.419Z,7.90
2023-02-23T07:36:19.284Z,7.90
2023-02-23T07:37:22.934Z,7.90
2023-02-23T07:38:28.779Z,7.90
2023-02-23T07:39:31.438Z,7.90
2023-02-23T07:40:35.448Z,7.90
2023-02-23T07:41:38.115Z,7.90
2023-02-23T07:42:50.105Z,7.90
2023-02-23T07:43:53.059Z,7.90
2023-02-23T07:44:56.876Z,8.00
2023-02-23T07:46:00.974Z,8.00
2023-02-23T07:47:04.894Z,8.00
2023-02-23T07:48:07.869Z,8.00
2023-02-23T07:49:11.744Z,8.00
2023-02-23T07:50:15.545Z,8.00
2023-02-23T07:51:20.377Z,8.00
2023-02-23T07:52:24.395Z,8.10
2023-02-23T07:53:28.405Z,8.10
2023-02-23T07:54:35.337Z,8.10
2023-02-23T07:55:38.647Z,8.10
2023-02-23T07:56:42.301Z,8.10
2023-02-23T07:57:46.050Z,8.10
2023-02-23T07:58:48.913Z,8.20
2023-02-23T07:59:52.589Z,8.20
2023-02-23T08:00:55.704Z,8.20
2023-02-23T08:01:59.378Z,8.20
2023-02-23T08:03:02.129Z,8.20
2023-02-23T08:04:06.053Z,8.30
2023-02-23T08:05:09.210Z,8.30
2023-02-23T08:06:12.910Z,8.30
2023-02-23T08:07:16.822Z,8.30
2023-02-23T08:08:20.689Z,8.30
2023-02-23T08:09:24.835Z,8.30
2023-02-23T08:10:28.513Z,8.30
2023-02-23T08:11:31.562Z,8.30
2023-02-23T08:12:35.466Z,8.30
2023-02-23T08:13:39.076Z,8.30
2023-02-23T08:14:42.840Z,8.30
2023-02-23T08:15:45.431Z,8.40
2023-02-23T08:16:51.491Z,8.40
2023-02-23T08:17:54.362Z,8.40
2023-02-23T08:18:59.537Z,8.40
2023-02-23T08:20:03.985Z,8.40
2023-02-23T08:21:07.816Z,8.40
2023-02-23T08:22:11.611Z,8.40
2023-02-23T08:23:14.444Z,8.40
2023-02-23T08:24:18.686Z,8.40
2023-02-23T08:25:22.751Z,8.40
2023-02-23T08:26:26.678Z,8.40
2023-02-23T08:27:30.465Z,8.40
2023-02-23T08:28:34.190Z,8.40
2023-02-23T08:29:36.902Z,8.50
2023-02-23T08:30:42.660Z,8.50
2023-02-23T08:31:45.809Z,8.50
2023-02-23T08:32:50.868Z,8.50
2023-02-23T08:33:55.232Z,8.50
2023-02-23T08:35:01.236Z,8.50
2023-02-23T08:36:04.292Z,8.50
2023-02-23T08:37:08.288Z,8.50
2023-02-23T08:38:11.046Z,8.60
2023-02-23T08:39:15.071Z,8.60
2023-02-23T08:40:20.799Z,8.60
2023-02-23T08:41:26.349Z,8.60
2023-02-23T08:42:29.179Z,8.60
2023-02-23T08:43:33.441Z,8.70
2023-02-23T08:44:36.265Z,8.70
2023-02-23T08:45:40.228Z,8.70
2023-02-23T08:46:45.654Z,8.70
2023-02-23T08:47:49.454Z,8.80
2023-02-23T08:48:52.493Z,8.80
2023-02-23T08:49:56.488Z,8.80
2023-02-23T08:51:01.187Z,8.90
2023-02-23T08:52:04.606Z,8.90
2023-02-23T08:53:09.129Z,8.90
2023-02-23T08:54:15.007Z,8.90
2023-02-23T08:55:18.764Z,9.00
2023-02-23T08:56:22.771Z,9.00
2023-02-23T08:57:27.170Z,9.00
2023-02-23T08:58:32.805Z,9.00
2023-02-23T08:59:35.692Z,9.10
2023-02-23T09:00:39.828Z,9.10
2023-02-23T09:01:48.977Z,9.10
2023-02-23T09:02:52.612Z,9.10
2023-02-23T09:03:56.302Z,9.20
2023-02-23T09:05:01.883Z,9.20
2023-02-23T09:06:12.684Z,9.20
2023-02-23T09:07:18.237Z,9.20
2023-02-23T09:08:23.003Z,9.30
2023-02-23T09:09:25.849Z,9.30
2023-02-23T09:10:29.735Z,9.30
2023-02-23T09:11:33.752Z,9.30
2023-02-23T09:12:38.738Z,9.30
2023-02-23T09:13:41.517Z,9.30
2023-02-23T09:14:45.416Z,9.40
2023-02-23T09:15:49.268Z,9.40
2023-02-23T09:16:52.213Z,9.40
2023-02-23T09:17:56.014Z,9.40
2023-02-23T09:19:01.520Z,9.40
2023-02-23T09:20:07.474Z,9.40
2023-02-23T09:21:18.987Z,9.40
2023-02-23T09:22:23.181Z,9.40
2023-02-23T09:23:29.840Z,9.40
2023-02-23T09:24:35.070Z,9.40
2023-02-23T09:25:43.961Z,9.40
2023-02-23T09:26:46.943Z,9.40
2023-02-23T09:27:53.573Z,9.40
2023-02-23T09:28:59.214Z,9.40
2023-02-23T09:30:02.420Z,9.40
2023-02-23T09:31:12.261Z,9.40
2023-02-23T09:32:16.179Z,9.40
2023-02-23T09:33:19.889Z,9.40
2023-02-23T09:34:22.747Z,9.40
2023-02-23T09:35:27.272Z,9.40
2023-02-23T09:36:31.725Z,9.50
2023-02-23T09:37:35.447Z,9.40
2023-02-23T09:38:39.263Z,9.50
2023-02-23T09:39:43.848Z,9.50
2023-02-23T09:40:54.353Z,9.50
2023-02-23T09:42:11.392Z,9.50
2023-02-23T09:43:24.465Z,9.50
2023-02-23T09:44:45.680Z,9.50
2023-02-23T09:45:54.937Z,9.60
2023-02-23T09:47:11.935Z,9.60
2023-02-23T09:48:20.395Z,9.60
2023-02-23T09:49:30.011Z,9.60
2023-02-23T09:50:36.648Z,9.60
2023-02-23T09:51:48.378Z,9.70
2023-02-23T09:53:00.086Z,9.70
2023-02-23T09:54:07.068Z,9.70
2023-02-23T09:55:13.010Z,9.70
2023-02-23T09:56:31.710Z,9.70
2023-02-23T09:57:40.853Z,9.70
2023-02-23T09:58:46.452Z,9.70
2023-02-23T09:59:49.342Z,9.70
2023-02-23T10:01:41.110Z,9.80
2023-02-23T10:03:08.788Z,9.80
2023-02-23T10:04:20.805Z,9.80
2023-02-23T10:05:28.261Z,9.80
2023-02-23T10:06:32.593Z,9.80
2023-02-23T10:07:47.560Z,9.80
2023-02-23T10:09:14.663Z,9.80
2023-02-23T10:10:29.432Z,9.80
2023-02-23T10:11:42.098Z,9.80
2023-02-23T10:13:02.630Z,9.80
2023-02-23T10:14:24.556Z,9.80
2023-02-23T10:15:39.948Z,9.90
2023-02-23T10:16:53.702Z,9.90
2023-02-23T10:18:11.118Z,9.90
2023-02-23T10:19:25.475Z,9.90
2023-02-23T10:20:44.258Z,9.90
2023-02-23T10:21:56.527Z,9.90
2023-02-23T10:23:08.154Z,10.00
2023-02-23T10:24:19.588Z,10.00
2023-02-23T10:25:28.996Z,10.00
2023-02-23T10:26:44.206Z,10.00
2023-02-23T10:27:51.211Z,10.00
2023-02-23T10:28:57.586Z,10.00
2023-02-23T10:30:17.146Z,10.00
2023-02-23T10:31:31.537Z,10.00
2023-02-23T10:32:48.914Z,10.00
2023-02-23T10:33:55.414Z,10.00
2023-02-23T10:34:59.286Z,10.00
2023-02-23T10:36:21.318Z,10.00
2023-02-23T10:37:28.740Z,10.00
2023-02-23T10:38:32.066Z,10.00
2023-02-23T10:39:36.068Z,10.00
2023-02-23T10:40:39.853Z,10.10
2023-02-23T10:41:43.593Z,10.10
2023-02-23T10:42:47.549Z,10.10
2023-02-23T10:43:51.593Z,10.20
2023-02-23T10:44:54.815Z,10.20
2023-02-23T10:46:00.400Z,10.30
2023-02-23T10:47:09.077Z,10.30
2023-02-23T10:48:20.726Z,10.30
2023-02-23T10:49:31.720Z,10.30
2023-02-23T10:50:38.485Z,10.40
2023-02-23T10:51:43.432Z,10.40
2023-02-23T10:52:49.411Z,10.40
2023-02-23T10:53:53.405Z,10.40
2023-02-23T10:54:58.194Z,10.40
2023-02-23T10:56:06.885Z,10.40
2023-02-23T10:57:25.352Z,10.50
2023-02-23T10:58:30.075Z,10.40
2023-02-23T10:59:34.843Z,10.50
2023-02-23T11:00:41.787Z,10.40
2023-02-23T11:02:01.051Z,10.40
2023-02-23T11:03:23.526Z,10.40
2023-02-23T11:04:29.380Z,10.40
2023-02-23T11:05:50.600Z,10.40
2023-02-23T11:07:09.966Z,10.30
2023-02-23T11:08:23.862Z,10.30
2023-02-23T11:09:44.536Z,10.30
2023-02-23T11:11:01.031Z,10.30
2023-02-23T11:12:22.041Z,10.20
2023-02-23T11:13:28.737Z,10.20
2023-02-23T11:14:33.666Z,10.20
2023-02-23T11:15:50.642Z,10.10
2023-02-23T11:16:58.612Z,10.10
2023-02-23T11:18:04.195Z,10.10
2023-02-23T11:19:25.213Z,10.00
2023-02-23T11:20:35.962Z,10.00
2023-02-23T11:21:41.394Z,10.00
2023-02-23T11:22:44.897Z,10.00
2023-02-23T11:23:53.463Z,10.00
2023-02-23T11:24:56.527Z,9.90
2023-02-23T11:26:03.518Z,9.90
2023-02-23T11:27:21.157Z,9.90
2023-02-23T11:28:30.396Z,9.90
2023-02-23T11:29:39.283Z,9.80
2023-02-23T11:30:43.127Z,9.80
2023-02-23T11:31:54.029Z,9.80
2023-02-23T11:33:09.615Z,9.80
2023-02-23T11:34:25.386Z,9.80
2023-02-23T11:35:31.467Z,9.80
2023-02-23T11:36:37.806Z,9.80
2023-02-23T11:37:41.863Z,9.80
2023-02-23T11:38:48.023Z,9.80
2023-02-23T11:39:57.877Z,9.80
2023-02-23T11:41:07.301Z,9.80
2023-02-23T11:42:20.453Z,9.90
2023-02-23T11:43:23.504Z,9.90
2023-02-23T11:44:27.907Z,9.90
2023-02-23T11:45:34.615Z,9.90
2023-02-23T11:46:39.340Z,10.00
2023-02-23T11:47:49.452Z,10.00
2023-02-23T11:48:59.831Z,10.00
2023-02-23T11:50:04.979Z,10.10
2023-02-23T11:51:09.587Z,10.10
2023-02-23T11:52:18.314Z,10.20
2023-02-23T11:53:30.340Z,10.20
2023-02-23T11:54:35.393Z,10.30
2023-02-23T11:55:40.064Z,10.30
2023-02-23T11:56:52.203Z,10.30
2023-02-23T11:58:11.505Z,10.30
2023-02-23T11:59:22.458Z,10.40
2023-02-23T12:00:28.052Z,10.40
2023-02-23T12:01:45.627Z,10.40
2023-02-23T12:02:55.526Z,10.40
2023-02-23T12:04:01.125Z,10.40
2023-02-23T12:05:10.731Z,10.50
2023-02-23T12:06:27.778Z,10.50
2023-02-23T12:07:45.969Z,10.50
2023-02-23T12:08:55.840Z,10.50
2023-02-23T12:10:08.749Z,10.50
2023-02-23T12:11:17.348Z,10.50
2023-02-23T12:12:24.624Z,10.50
2023-02-23T12:13:33.811Z,10.50
2023-02-23T12:14:42.484Z,10.50
2023-02-23T12:15:54.153Z,10.50
2023-02-23T12:17:05.350Z,10.50
2023-02-23T12:18:19.250Z,10.50
2023-02-23T12:19:31.156Z,10.50
2023-02-23T12:20:42.649Z,10.40
2023-02-23T12:21:51.296Z,10.40
2023-02-23T12:23:00.544Z,10.40
2023-02-23T12:24:19.629Z,10.40
2023-02-23T12:25:31.159Z,10.40
2023-02-23T12:26:41.067Z,10.40
2023-02-23T12:27:50.519Z,10.40
2023-02-23T12:29:02.599Z,10.40
2023-02-23T12:30:18.603Z,10.40
2023-02-23T12:31:30.110Z,10.30
2023-02-23T12:32:46.219Z,10.30
2023-02-23T12:33:56.795Z,10.30
2023-02-23T12:35:08.131Z,10.30
2023-02-23T12:36:26.258Z,10.30
2023-02-23T12:37:40.968Z,10.30
2023-02-23T12:38:53.516Z,10.30
2023-02-23T12:40:05.485Z,10.30
2023-02-23T12:41:15.109Z,10.30
2023-02-23T12:42:27.573Z,10.30
2023-02-23T12:43:39.704Z,10.40
2023-02-23T12:44:49.001Z,10.40
2023-02-23T12:45:56.219Z,10.50
2023-02-23T12:47:08.901Z,10.50
2023-02-23T12:48:31.771Z,10.60
2023-02-23T12:49:41.713Z,10.60
2023-02-23T12:50:53.793Z,10.70
2023-02-23T12:52:06.913Z,10.70
2023-02-23T12:53:22.773Z,10.80
2023-02-23T12:54:27.301Z,10.80
2023-02-23T12:55:42.031Z,10.80
2023-02-23T12:56:57.556Z,10.80
2023-02-23T12:58:12.794Z,10.80
2023-02-23T12:59:42.892Z,10.70
2023-02-23T13:00:56.520Z,10.70
2023-02-23T13:02:04.219Z,10.70
2023-02-23T13:03:54.154Z,10.80
2023-02-23T13:05:22.770Z,10.80
2023-02-23T13:06:39.832Z,10.80
2023-02-23T13:07:59.190Z,10.80
2023-02-23T13:09:30.750Z,10.90
2023-02-23T13:10:44.698Z,11.00
2023-02-23T13:12:08.774Z,11.00
2023-02-23T13:13:31.424Z,11.10
2023-02-23T13:14:44.217Z,11.10
2023-02-23T13:16:01.532Z,11.10
2023-02-23T13:17:12.887Z,11.20
2023-02-23T13:18:25.897Z,11.20
2023-02-23T13:19:39.469Z,11.20
2023-02-23T13:20:49.224Z,11.20
2023-02-23T13:22:03.076Z,11.20
2023-02-23T13:23:26.743Z,11.20
2023-02-23T13:24:38.831Z,11.20
2023-02-23T13:25:51.832Z,11.20
2023-02-23T13:27:03.094Z,11.20
2023-02-23T13:28:15.420Z,11.20
2023-02-23T13:29:34.211Z,11.10
2023-02-23T13:30:42.514Z,11.10
2023-02-23T13:31:47.100Z,11.10
2023-02-23T13:32:51.697Z,11.10
2023-02-23T13:33:57.979Z,11.10
2023-02-23T13:35:04.546Z,11.10
2023-02-23T13:36:08.480Z,11.20
2023-02-23T13:37:20.519Z,11.20
2023-02-23T13:38:34.626Z,11.20
2023-02-23T13:39:53.707Z,11.10
2023-02-23T13:41:10.273Z,11.10
2023-02-23T13:42:28.207Z,11.10
2023-02-23T13:43:40.118Z,11.10
2023-02-23T13:44:49.923Z,11.10
2023-02-23T13:46:08.923Z,11.00
2023-02-23T13:47:19.840Z,11.00
2023-02-23T13:48:56.077Z,11.00
2023-02-23T13:50:06.564Z,10.90
2023-02-23T13:51:21.270Z,10.90
2023-02-23T13:52:33.990Z,10.80
2023-02-23T13:53:44.551Z,10.80
2023-02-23T13:54:57.403Z,10.80
2023-02-23T13:56:04.327Z,10.80
2023-02-23T13:57:17.644Z,10.80
2023-02-23T13:58:28.835Z,10.80
2023-02-23T13:59:39.997Z,10.80
2023-02-23T14:00:44.891Z,10.80
2023-02-23T14:01:53.600Z,10.90
2023-02-23T14:02:57.337Z,10.90
2023-02-23T14:04:03.333Z,10.90
2023-02-23T14:05:18.765Z,11.00
2023-02-23T14:06:26.087Z,11.00
2023-02-23T14:07:33.504Z,11.00
2023-02-23T14:08:39.473Z,11.00
2023-02-23T14:09:52.287Z,11.00
2023-02-23T14:10:58.550Z,11.00
2023-02-23T14:12:19.349Z,11.00
2023-02-23T14:13:31.390Z,10.90
2023-02-23T14:14:45.291Z,10.90
2023-02-23T14:15:53.836Z,10.90
2023-02-23T14:17:43.929Z,10.80
2023-02-23T14:19:15.738Z,10.80
2023-02-23T14:20:53.347Z,10.80
2023-02-23T14:22:04.391Z,10.80
2023-02-23T14:23:49.846Z,10.70
2023-02-23T14:25:46.867Z,10.70
2023-02-23T14:27:43.419Z,10.70
2023-02-23T14:29:12.381Z,10.70
2023-02-23T14:30:25.567Z,10.60
2023-02-23T14:31:32.345Z,10.60
2023-02-23T14:32:41.604Z,10.60
2023-02-23T14:33:58.292Z,10.60
2023-02-23T14:35:03.917Z,10.60
2023-02-23T14:36:36.885Z,10.60
2023-02-23T14:37:42.609Z,10.60
2023-02-23T14:38:48.506Z,10.70
2023-02-23T14:39:54.542Z,10.70
2023-02-23T14:40:58.583Z,10.80
2023-02-23T14:42:07.486Z,10.90
2023-02-23T14:43:48.063Z,10.90
2023-02-23T14:44:53.566Z,11.00
2023-02-23T14:45:57.551Z,11.10
2023-02-23T14:47:05.487Z,11.10
2023-02-23T14:48:19.485Z,11.20
2023-02-23T14:49:26.378Z,11.20
2023-02-23T14:50:33.743Z,11.20
2023-02-23T14:51:42.657Z,11.20
2023-02-23T14:52:47.414Z,11.20
2023-02-23T14:53:53.678Z,11.30
2023-02-23T14:55:18.296Z,11.20
2023-02-23T14:56:28.042Z,11.20
2023-02-23T14:57:39.033Z,11.20
2023-02-23T14:58:42.745Z,11.10
2023-02-23T14:59:52.935Z,11.10
2023-02-23T15:00:55.991Z,11.00
2023-02-23T15:02:02.376Z,10.90
2023-02-23T15:03:09.332Z,10.80
2023-02-23T15:04:16.666Z,10.80
2023-02-23T15:05:26.004Z,10.70
2023-02-23T15:06:28.772Z,10.50
2023-02-23T15:07:38.144Z,10.40
2023-02-23T15:08:45.742Z,10.30
2023-02-23T15:09:52.873Z,10.20
2023-02-23T15:11:05.152Z,10.10
2023-02-23T15:12:18.338Z,10.00
2023-02-23T15:13:30.774Z,9.90
2023-02-23T15:14:41.987Z,9.80
2023-02-23T15:15:49.877Z,9.70
2023-02-23T15:16:52.895Z,9.70
2023-02-23T15:18:03.296Z,9.60
2023-02-23T15:19:07.786Z,9.50